Adelma Beach, Washington
Current Conditions -  °F | °C
As of 3:56 PM on Thursday 18 Dec 2014 (Local Time) from KNUW Reporting Station
Overcast Overcast  
Wind Chill: 53°   Ceiling: 11000
Heat Index: 53°   Visibility: 10mi
Dew Point: 41°   Wind: 25mph
Humidity: 64%   Direction: 130°SE
Pressure: 29.73"   Gusts: 39mph
Location:  48.026°N, 122.859°W
Report Text: KNUW 182356Z 13022G34KT 10SM SCT027 SCT035 BKN110 OVC240 12/05 A2973 RMK AO2 PK WND 12034/2353 RAB18E30 SLP071 P0000 60000 T01170050 10117 20100 58025 VISNO E $
Loading
Personal Weather Stations






























Interactive Weather Map New forecast layout! Learn more

10-Day Weather Forecast

Advertisements
Track Severe Weather on mobile